createdAt,value
2019-04-25T00:01:55.573Z,62.80
2019-04-25T00:04:24.519Z,60.80
2019-04-25T00:06:53.169Z,60.50
2019-04-25T00:09:23.510Z,60.90
2019-04-25T00:11:52.400Z,62.00
2019-04-25T00:14:22.592Z,63.00
2019-04-25T00:17:12.292Z,65.20
2019-04-25T00:19:42.482Z,65.20
2019-04-25T00:22:18.482Z,67.70
2019-04-25T00:24:49.482Z,68.10
2019-04-25T00:27:18.239Z,68.10
2019-04-25T00:29:46.911Z,69.20
2019-04-25T00:32:15.681Z,70.20
2019-04-25T00:34:45.438Z,69.30
2019-04-25T00:37:14.537Z,70.10
2019-04-25T00:39:44.760Z,69.00
2019-04-25T00:42:13.941Z,66.90
2019-04-25T00:44:44.537Z,67.70
2019-04-25T00:47:12.883Z,67.70
2019-04-25T00:49:44.084Z,66.40
2019-04-25T00:52:13.225Z,64.00
2019-04-25T00:54:43.071Z,63.70
2019-04-25T00:57:12.739Z,66.00
2019-04-25T00:59:43.876Z,66.70
2019-04-25T01:02:14.702Z,65.80
2019-04-25T01:04:43.870Z,66.50
2019-04-25T01:07:12.786Z,66.00
2019-04-25T01:09:42.354Z,66.10
2019-04-25T01:12:11.593Z,66.80
2019-04-25T01:14:42.030Z,66.00
2019-04-25T01:17:11.680Z,66.80
2019-04-25T01:19:40.634Z,66.50
2019-04-25T01:22:09.426Z,66.70
2019-04-25T01:24:38.210Z,66.40
2019-04-25T01:27:07.329Z,66.40
2019-04-25T01:29:36.038Z,65.00
2019-04-25T01:32:06.333Z,65.00
2019-04-25T01:34:44.269Z,63.00
2019-04-25T01:37:25.690Z,61.20
2019-04-25T01:40:04.624Z,61.40
2019-04-25T01:42:41.164Z,61.30
2019-04-25T01:45:10.036Z,61.20
2019-04-25T01:47:38.703Z,61.00
2019-04-25T01:50:08.066Z,60.70
2019-04-25T01:52:36.784Z,60.40
2019-04-25T01:55:07.329Z,60.40
2019-04-25T01:57:35.978Z,61.00
2019-04-25T02:00:06.396Z,61.40
2019-04-25T02:02:35.240Z,61.40
2019-04-25T02:05:05.094Z,61.70
2019-04-25T02:07:34.042Z,61.30
2019-04-25T02:10:04.422Z,60.60
2019-04-25T02:12:43.622Z,61.00
2019-04-25T02:15:14.235Z,61.30
2019-04-25T02:17:43.965Z,61.10
2019-04-25T02:20:13.981Z,61.70
2019-04-25T02:22:44.092Z,63.20
2019-04-25T02:25:13.343Z,64.00
2019-04-25T02:27:42.001Z,66.30
2019-04-25T02:30:11.796Z,67.50
2019-04-25T02:32:40.386Z,68.30
2019-04-25T02:35:09.972Z,68.50
2019-04-25T02:37:38.756Z,68.30
2019-04-25T02:40:08.433Z,68.10
2019-04-25T02:42:37.687Z,67.50
2019-04-25T02:45:10.934Z,70.70
2019-04-25T02:47:58.501Z,70.40
2019-04-25T02:50:35.955Z,70.20
2019-04-25T02:53:09.227Z,72.10
2019-04-25T02:55:38.026Z,73.10
2019-04-25T02:58:10.038Z,73.50
2019-04-25T03:00:49.765Z,72.20
2019-04-25T03:03:08.650Z,70.50
2019-04-25T03:05:37.489Z,69.20
2019-04-25T03:08:08.994Z,68.70
2019-04-25T03:10:36.533Z,68.20
2019-04-25T03:13:10.246Z,67.30
2019-04-25T03:15:36.583Z,66.60
2019-04-25T03:18:10.385Z,66.60
2019-04-25T03:20:37.832Z,66.20
2019-04-25T03:23:09.597Z,67.30
2019-04-25T03:25:38.572Z,68.50
2019-04-25T03:28:09.262Z,67.10
2019-04-25T03:30:38.075Z,67.80
2019-04-25T03:33:10.472Z,69.10
2019-04-25T03:35:37.239Z,68.70
2019-04-25T03:38:06.431Z,69.90
2019-04-25T03:40:35.094Z,70.30
2019-04-25T03:43:05.065Z,71.90
2019-04-25T03:45:34.132Z,73.70
2019-04-25T03:48:04.946Z,72.00
2019-04-25T03:50:34.079Z,70.60
2019-04-25T03:53:04.540Z,70.20
2019-04-25T03:55:34.059Z,69.50
2019-04-25T03:58:07.531Z,69.30
2019-04-25T04:00:34.199Z,69.00
2019-04-25T04:30:54.103Z,71.20
2019-04-25T04:33:30.249Z,71.00
2019-04-25T04:35:54.305Z,72.00
2019-04-25T04:38:24.074Z,72.60
2019-04-25T04:40:52.763Z,73.90
2019-04-25T04:43:21.329Z,73.20
2019-04-25T04:45:50.048Z,74.30
2019-04-25T04:48:18.876Z,74.00
2019-04-25T04:50:47.499Z,75.80
2019-04-25T04:53:17.130Z,76.00
2019-04-25T04:55:45.957Z,77.10
2019-04-25T04:58:16.070Z,77.70
2019-04-25T05:00:45.127Z,77.70
2019-04-25T05:03:18.851Z,77.50
2019-04-25T05:05:51.546Z,78.50
2019-04-25T05:08:24.996Z,77.80
2019-04-25T05:10:54.220Z,79.10
2019-04-25T05:13:24.278Z,77.70
2019-04-25T05:15:53.278Z,78.90
2019-04-25T05:18:37.006Z,80.10
2019-04-25T05:21:00.697Z,79.60
2019-04-25T05:23:29.317Z,79.80
2019-04-25T05:25:57.972Z,80.00
2019-04-25T05:28:26.674Z,81.00
2019-04-25T05:31:06.198Z,78.40
2019-04-25T05:33:34.841Z,79.10
2019-04-25T05:36:03.731Z,79.10
2019-04-25T05:38:33.967Z,79.20
2019-04-25T05:41:07.004Z,79.40
2019-04-25T05:43:35.689Z,80.20
2019-04-25T05:46:04.442Z,79.90
2019-04-25T05:48:34.021Z,79.90
2019-04-25T05:51:03.923Z,80.90
2019-04-25T05:53:33.349Z,82.50
2019-04-25T05:56:02.196Z,81.00
2019-04-25T05:58:30.935Z,79.90
2019-04-25T06:00:59.720Z,78.80
2019-04-25T06:03:28.363Z,78.50
2019-04-25T06:05:57.403Z,80.60
2019-04-25T06:08:28.051Z,80.00
2019-04-25T06:11:01.184Z,79.00
2019-04-25T06:13:33.225Z,78.50
2019-04-25T06:16:06.175Z,80.20
2019-04-25T06:18:43.844Z,81.90
2019-04-25T06:21:14.113Z,81.50
2019-04-25T06:23:50.400Z,82.80
2019-04-25T06:26:29.996Z,83.50
2019-04-25T06:28:57.054Z,83.60
2019-04-25T06:31:21.338Z,83.00
2019-04-25T06:33:50.067Z,83.30
2019-04-25T06:36:18.754Z,81.50
2019-04-25T06:38:47.486Z,82.30
2019-04-25T06:41:16.195Z,82.70
2019-04-25T06:43:46.600Z,83.50
2019-04-25T06:46:24.486Z,82.20
2019-04-25T06:49:04.044Z,82.20
2019-04-25T06:51:37.237Z,82.50
2019-04-25T06:54:13.563Z,83.00
2019-04-25T06:56:43.467Z,83.50
2019-04-25T06:59:13.652Z,83.80
2019-04-25T07:01:43.869Z,84.00
2019-04-25T07:04:14.045Z,84.30
2019-04-25T07:06:44.425Z,85.10
2019-04-25T07:09:14.599Z,84.50
2019-04-25T07:11:43.985Z,84.30
2019-04-25T07:14:14.239Z,84.30
2019-04-25T07:16:43.385Z,84.10
2019-04-25T07:19:14.257Z,83.40
2019-04-25T07:21:44.267Z,83.00
2019-04-25T07:24:14.488Z,83.20
2019-04-25T07:26:45.593Z,82.40
2019-04-25T07:29:34.636Z,82.10
2019-04-25T07:32:14.888Z,81.00
2019-04-25T07:34:43.930Z,82.20
2019-04-25T07:37:13.239Z,83.30
2019-04-25T07:39:42.035Z,82.30
2019-04-25T07:42:10.787Z,83.30
2019-04-25T07:44:49.974Z,81.80
2019-04-25T07:47:09.871Z,81.00
2019-04-25T07:49:38.559Z,80.90
2019-04-25T07:52:07.191Z,81.30
2019-04-25T07:54:36.574Z,80.00
2019-04-25T07:57:06.240Z,79.50
2019-04-25T07:59:36.229Z,78.70
2019-04-25T08:02:05.535Z,78.60
2019-04-25T08:04:54.369Z,77.90
2019-04-25T08:07:24.122Z,76.00
2019-04-25T08:09:54.199Z,78.30
2019-04-25T08:12:23.078Z,76.50
2019-04-25T08:14:54.254Z,76.20
2019-04-25T08:17:41.483Z,76.30
2019-04-25T08:20:10.725Z,75.50
2019-04-25T08:22:52.923Z,73.70
2019-04-25T08:25:10.143Z,71.90
2019-04-25T08:27:38.955Z,72.10
2019-04-25T08:30:08.209Z,71.70
2019-04-25T08:32:37.625Z,71.00
2019-04-25T08:35:06.563Z,69.90
2019-04-25T08:37:35.626Z,70.20
2019-04-25T08:40:25.819Z,70.70
2019-04-25T08:42:54.492Z,69.60
2019-04-25T08:45:24.494Z,71.10
2019-04-25T08:47:53.769Z,71.20
2019-04-25T08:50:28.906Z,71.10
2019-04-25T08:52:54.661Z,69.70
2019-04-25T08:55:41.821Z,69.20
2019-04-25T08:58:13.755Z,68.10
2019-04-25T09:00:59.284Z,67.50
2019-04-25T09:03:27.654Z,67.90
2019-04-25T09:05:56.881Z,67.20
2019-04-25T09:08:25.635Z,65.40
2019-04-25T09:10:54.275Z,63.80
2019-04-25T09:13:23.415Z,65.00
2019-04-25T09:15:54.050Z,65.10
2019-04-25T09:18:23.970Z,64.50
2019-04-25T09:20:54.018Z,64.30
2019-04-25T09:23:23.549Z,63.20
2019-04-25T09:25:52.443Z,63.70
2019-04-25T09:28:21.170Z,62.50
2019-04-25T09:30:49.888Z,62.20
2019-04-25T09:33:18.691Z,63.20
2019-04-25T09:35:47.327Z,61.80
2019-04-25T09:38:15.969Z,64.60
2019-04-25T09:40:45.677Z,65.90
2019-04-25T09:43:14.881Z,65.90
2019-04-25T09:45:46.105Z,64.70
2019-04-25T09:48:16.468Z,65.20
2019-04-25T09:50:46.754Z,65.40
2019-04-25T09:53:23.210Z,63.70
2019-04-25T09:56:07.241Z,62.50
2019-04-25T09:58:37.977Z,64.70
2019-04-25T10:01:11.351Z,63.90
2019-04-25T10:03:40.928Z,65.90
2019-04-25T10:06:09.637Z,73.10
2019-04-25T10:08:38.713Z,74.50
2019-04-25T10:11:07.645Z,76.60
2019-04-25T10:13:36.335Z,76.60
2019-04-25T10:16:08.098Z,79.00
2019-04-25T10:18:37.929Z,78.00
2019-04-25T10:21:09.569Z,80.40
2019-04-25T10:23:39.848Z,81.70
2019-04-25T10:26:10.421Z,82.90
2019-04-25T10:28:58.407Z,81.80
2019-04-25T10:31:27.087Z,80.80
2019-04-25T10:33:55.699Z,79.70
2019-04-25T10:36:24.640Z,77.90
2019-04-25T10:39:06.711Z,77.50
2019-04-25T10:41:24.499Z,76.30
2019-04-25T10:43:54.623Z,77.20
2019-04-25T10:46:45.726Z,76.20
2019-04-25T10:49:14.549Z,77.30
2019-04-25T10:51:44.741Z,75.60
2019-04-25T10:54:14.534Z,76.00
2019-04-25T10:56:45.521Z,72.00
2019-04-25T10:59:14.450Z,74.50
2019-04-25T11:01:45.080Z,74.30
2019-04-25T11:04:15.392Z,73.00
2019-04-25T11:06:45.467Z,72.30
2019-04-25T11:09:18.902Z,69.60
2019-04-25T11:11:48.156Z,67.50
2019-04-25T11:14:16.998Z,67.70
2019-04-25T11:16:46.634Z,68.60
2019-04-25T11:19:15.407Z,64.40
2019-04-25T11:21:45.315Z,66.30
2019-04-25T11:24:14.395Z,66.70
2019-04-25T11:26:47.166Z,67.70
2019-04-25T11:29:14.973Z,67.60
2019-04-25T11:31:46.981Z,66.80
2019-04-25T11:34:17.111Z,61.00
2019-04-25T11:36:45.763Z,61.30
2019-04-25T11:39:25.285Z,59.00
2019-04-25T11:41:55.349Z,59.60
2019-04-25T11:44:24.608Z,60.60
2019-04-25T11:46:53.714Z,59.70
2019-04-25T11:49:23.873Z,59.80
2019-04-25T11:51:52.591Z,59.10
2019-04-25T11:54:21.271Z,57.40
2019-04-25T11:56:50.716Z,56.10
2019-04-25T11:59:19.761Z,54.80
2019-04-25T12:01:48.477Z,54.80
2019-04-25T12:04:17.331Z,55.00
2019-04-25T12:06:47.581Z,56.80
2019-04-25T12:09:17.168Z,56.00
2019-04-25T12:11:47.201Z,55.10
2019-04-25T12:14:16.276Z,54.90
2019-04-25T12:16:47.787Z,55.00
2019-04-25T12:19:15.292Z,54.20
2019-04-25T12:21:44.709Z,51.00
2019-04-25T12:24:13.734Z,49.50
2019-04-25T12:27:04.288Z,47.30
2019-04-25T12:29:33.683Z,47.70
2019-04-25T12:32:04.061Z,46.50
2019-04-25T12:34:33.757Z,47.40
2019-04-25T12:37:02.719Z,47.10
2019-04-25T12:39:31.430Z,47.90
2019-04-25T12:42:00.552Z,48.70
2019-04-25T12:44:39.888Z,48.40
2019-04-25T12:47:16.305Z,50.20
2019-04-25T12:49:46.620Z,49.60
2019-04-25T12:52:15.408Z,48.40
2019-04-25T12:54:44.136Z,47.00
2019-04-25T12:57:14.161Z,48.10
2019-04-25T12:59:44.914Z,47.50
2019-04-25T13:02:13.467Z,47.40
2019-04-25T13:04:42.190Z,44.40
2019-04-25T13:07:10.874Z,44.20
2019-04-25T13:09:39.599Z,42.10
2019-04-25T13:12:08.493Z,42.10
2019-04-25T13:14:37.259Z,43.10
2019-04-25T13:17:08.009Z,44.40
2019-04-25T13:19:36.390Z,43.40
2019-04-25T13:22:05.450Z,42.40
2019-04-25T13:24:34.148Z,40.80
2019-04-25T13:27:07.831Z,38.90
2019-04-25T13:29:38.286Z,41.00
2019-04-25T13:32:21.430Z,41.60
2019-04-25T13:34:53.813Z,40.70
2019-04-25T13:37:24.071Z,40.20
2019-04-25T13:39:54.097Z,41.00
2019-04-25T13:42:23.303Z,43.00
2019-04-25T13:44:51.988Z,44.00
2019-04-25T13:47:21.808Z,43.30
2019-04-25T13:49:50.623Z,43.50
2019-04-25T13:52:19.387Z,44.20
2019-04-25T13:54:48.132Z,44.60
2019-04-25T13:57:16.739Z,43.70
2019-04-25T13:59:45.852Z,43.30
2019-04-25T14:02:14.810Z,41.30
2019-04-25T14:04:44.199Z,39.60
2019-04-25T14:07:13.468Z,39.20
2019-04-25T14:09:43.044Z,40.00
2019-04-25T14:12:13.949Z,41.40
2019-04-25T14:14:44.104Z,41.10
2019-04-25T14:17:33.779Z,39.40
2019-04-25T14:20:24.863Z,37.70
2019-04-25T14:22:53.764Z,37.70
2019-04-25T14:25:25.599Z,39.30
2019-04-25T14:27:54.493Z,39.00
2019-04-25T14:30:25.254Z,36.50
2019-04-25T14:32:55.053Z,34.70
2019-04-25T14:35:24.143Z,33.20
2019-04-25T14:37:53.932Z,35.30
2019-04-25T14:40:24.715Z,33.40
2019-04-25T14:42:53.001Z,30.70
2019-04-25T14:45:22.606Z,29.90
2019-04-25T14:47:51.295Z,30.10
2019-04-25T14:50:20.426Z,32.20
2019-04-25T14:53:08.371Z,32.60
2019-04-25T14:55:58.899Z,35.40
2019-04-25T14:58:30.310Z,37.50
2019-04-25T15:00:59.364Z,39.10
2019-04-25T15:03:28.017Z,38.70
2019-04-25T15:05:56.747Z,38.50
2019-04-25T15:08:26.527Z,38.90
2019-04-25T15:10:55.372Z,38.60
2019-04-25T15:13:24.211Z,38.70
2019-04-25T15:15:53.079Z,38.00
2019-04-25T15:18:22.405Z,38.20
2019-04-25T15:20:52.128Z,36.80
2019-04-25T15:23:20.709Z,37.60
2019-04-25T15:25:49.638Z,36.70
2019-04-25T15:28:18.502Z,34.00
2019-04-25T15:30:53.291Z,36.00
2019-04-25T15:33:22.014Z,37.80
2019-04-25T15:36:07.651Z,41.10
2019-04-25T15:38:40.712Z,41.60
2019-04-25T15:41:16.789Z,39.80
2019-04-25T15:43:53.004Z,37.10
2019-04-25T15:46:32.273Z,34.70
2019-04-25T15:49:01.132Z,34.20
2019-04-25T15:51:29.961Z,33.80
2019-04-25T15:53:58.757Z,31.30
2019-04-25T15:56:28.619Z,31.70
2019-04-25T15:58:57.560Z,31.90
2019-04-25T16:01:28.336Z,38.70
2019-04-25T16:03:57.126Z,39.90
2019-04-25T16:06:26.642Z,38.50
2019-04-25T16:08:55.721Z,36.80
2019-04-25T16:11:43.725Z,35.90
2019-04-25T16:14:12.458Z,38.40
2019-04-25T16:16:41.161Z,40.50
2019-04-25T16:19:10.050Z,42.00
2019-04-25T16:21:38.868Z,43.20
2019-04-25T16:24:07.564Z,43.40
2019-04-25T16:26:36.293Z,41.60
2019-04-25T16:29:05.377Z,40.60
2019-04-25T16:31:34.596Z,39.50
2019-04-25T16:34:03.448Z,42.10
2019-04-25T16:36:32.509Z,43.30
2019-04-25T16:39:01.682Z,44.40
2019-04-25T16:41:31.485Z,45.10
2019-04-25T16:44:04.956Z,45.50
2019-04-25T16:46:34.415Z,43.30
2019-04-25T16:49:03.561Z,40.00
2019-04-25T16:51:32.863Z,39.80
2019-04-25T16:54:01.529Z,39.90
2019-04-25T16:56:30.598Z,42.40
2019-04-25T16:58:59.293Z,43.20
2019-04-25T17:01:28.055Z,44.10
2019-04-25T17:03:56.632Z,43.60
2019-04-25T17:06:25.535Z,44.50
2019-04-25T17:08:54.462Z,44.10
2019-04-25T17:11:23.202Z,43.00
2019-04-25T17:13:59.304Z,42.40
2019-04-25T17:16:30.566Z,42.00
2019-04-25T17:21:49.093Z,42.20
2019-04-25T17:24:17.937Z,44.20
2019-04-25T17:26:46.707Z,45.60
2019-04-25T17:29:17.036Z,45.50
2019-04-25T17:31:59.574Z,45.90
2019-04-25T17:34:36.583Z,45.50
2019-04-25T17:37:16.131Z,46.50
2019-04-25T17:39:52.513Z,46.60
2019-04-25T17:42:21.265Z,46.90
2019-04-25T17:44:49.886Z,46.90
2019-04-25T17:47:18.626Z,46.00
2019-04-25T17:49:47.414Z,45.70
2019-04-25T17:52:16.124Z,47.30
2019-04-25T17:54:45.204Z,46.80
2019-04-25T17:57:13.902Z,46.60
2019-04-25T17:59:43.429Z,45.80
2019-04-25T18:02:12.509Z,45.60
2019-04-25T18:04:41.299Z,45.40
2019-04-25T18:07:10.300Z,45.80
2019-04-25T18:09:39.244Z,46.00
2019-04-25T18:12:07.962Z,46.10
2019-04-25T18:14:36.651Z,46.00
2019-04-25T18:17:05.755Z,45.50
2019-04-25T18:19:36.383Z,46.10
2019-04-25T18:22:07.251Z,45.70
2019-04-25T18:24:54.184Z,45.50
2019-04-25T18:30:18.140Z,46.10
2019-04-25T18:32:48.405Z,46.80
2019-04-25T18:35:18.693Z,45.60
2019-04-25T18:37:49.050Z,46.70
2019-04-25T18:40:22.610Z,46.40
2019-04-25T18:42:58.815Z,45.90
2019-04-25T18:45:29.207Z,46.80
2019-04-25T18:47:57.850Z,46.20
2019-04-25T18:50:28.195Z,46.50
2019-04-25T18:53:00.384Z,45.50
2019-04-25T18:55:37.475Z,45.80
2019-04-25T18:58:07.998Z,46.70
2019-04-25T19:00:39.109Z,46.50
2019-04-25T19:03:22.276Z,46.20
2019-04-25T19:05:54.592Z,46.80
2019-04-25T19:08:23.321Z,47.30
2019-04-25T19:10:51.992Z,47.80
2019-04-25T19:13:20.627Z,48.40
2019-04-25T19:15:49.386Z,47.90
2019-04-25T19:18:18.021Z,48.60
2019-04-25T19:20:46.859Z,49.50
2019-04-25T19:23:15.738Z,50.30
2019-04-25T19:25:45.738Z,51.70
2019-04-25T19:28:14.644Z,51.90
2019-04-25T19:30:43.299Z,51.30
2019-04-25T19:33:11.927Z,51.30
2019-04-25T19:35:41.660Z,51.40
2019-04-25T19:38:10.653Z,51.50
2019-04-25T19:40:44.101Z,51.90
2019-04-25T19:43:20.330Z,51.10
2019-04-25T19:45:49.086Z,50.00
2019-04-25T19:48:17.850Z,49.80
2019-04-25T19:50:46.443Z,50.40
2019-04-25T19:53:15.212Z,50.30
2019-04-25T19:55:43.851Z,49.70
2019-04-25T19:58:12.490Z,50.10
2019-04-25T20:00:42.680Z,50.50
2019-04-25T20:03:13.518Z,51.60
2019-04-25T20:05:46.558Z,52.00
2019-04-25T20:08:29.223Z,52.30
2019-04-25T20:10:59.576Z,52.70
2019-04-25T20:13:28.192Z,53.60
2019-04-25T20:15:56.832Z,54.20
2019-04-25T20:18:25.566Z,53.80
2019-04-25T20:20:54.364Z,53.80
2019-04-25T20:23:24.123Z,54.50
2019-04-25T20:25:53.675Z,53.90
2019-04-25T20:28:23.156Z,52.80
2019-04-25T20:30:51.948Z,52.10
2019-04-25T20:33:20.605Z,51.70
2019-04-25T20:35:49.317Z,50.90
2019-04-25T20:38:17.888Z,51.60
2019-04-25T20:40:47.624Z,51.90
2019-04-25T20:43:16.543Z,52.90
2019-04-25T20:45:45.800Z,52.60
2019-04-25T20:48:15.542Z,52.60
2019-04-25T20:50:44.187Z,52.10
2019-04-25T20:53:12.971Z,52.20
2019-04-25T20:55:41.476Z,52.00
2019-04-25T20:58:10.185Z,52.60
2019-04-25T21:00:45.500Z,52.30
2019-04-25T21:03:14.285Z,52.70
2019-04-25T21:05:43.709Z,53.20
2019-04-25T21:08:12.502Z,53.20
2019-04-25T21:10:41.237Z,52.90
2019-04-25T21:13:11.563Z,52.60
2019-04-25T21:15:50.762Z,52.50
2019-04-25T21:18:26.934Z,52.50
2019-04-25T21:20:55.696Z,52.10
2019-04-25T21:23:24.384Z,52.60
2019-04-25T21:25:53.355Z,53.10
2019-04-25T21:28:22.053Z,53.50
2019-04-25T21:30:51.396Z,54.00
2019-04-25T21:33:20.448Z,54.00
2019-04-25T21:35:49.439Z,54.40
2019-04-25T21:38:18.387Z,55.00
2019-04-25T21:43:33.856Z,54.90
2019-04-25T21:46:03.025Z,55.90
2019-04-25T21:48:31.970Z,56.00
2019-04-25T21:51:03.450Z,55.50
2019-04-25T21:53:32.226Z,55.80
2019-04-25T21:56:01.873Z,56.00
2019-04-25T21:58:30.439Z,55.50
2019-04-25T22:01:02.294Z,56.10
2019-04-25T22:03:31.296Z,55.80
2019-04-25T22:06:00.770Z,56.00
2019-04-25T22:11:18.123Z,55.50
2019-04-25T22:13:47.231Z,56.30
2019-04-25T22:16:16.392Z,57.20
2019-04-25T22:18:46.108Z,59.10
2019-04-25T22:21:14.956Z,58.60
2019-04-25T22:23:43.954Z,58.50
2019-04-25T22:26:12.931Z,58.20
2019-04-25T22:28:41.729Z,58.40
2019-04-25T22:31:15.230Z,57.80
2019-04-25T22:33:45.588Z,57.30
2019-04-25T22:36:19.317Z,58.00
2019-04-25T22:38:49.724Z,57.50
2019-04-25T22:41:18.494Z,58.30
2019-04-25T22:43:52.320Z,59.70
2019-04-25T22:46:26.478Z,60.00
2019-04-25T22:48:53.229Z,61.30
2019-04-25T22:54:28.865Z,63.40
2019-04-25T22:56:57.636Z,64.40
2019-04-25T22:59:26.589Z,64.10
2019-04-25T23:01:56.910Z,63.60
2019-04-25T23:04:39.985Z,64.10
2019-04-25T23:07:08.705Z,63.80
2019-04-25T23:09:38.100Z,63.90
2019-04-25T23:12:07.566Z,63.70
2019-04-25T23:14:37.797Z,65.20
2019-04-25T23:17:07.291Z,64.20
2019-04-25T23:19:36.097Z,63.60
2019-04-25T23:22:05.723Z,64.30
2019-04-25T23:24:36.075Z,64.20
2019-04-25T23:27:06.702Z,62.30
2019-04-25T23:29:35.430Z,64.60
2019-04-25T23:32:04.393Z,65.20
2019-04-25T23:34:34.463Z,65.40
2019-04-25T23:37:03.195Z,66.40
2019-04-25T23:39:32.177Z,67.10
2019-04-25T23:42:00.807Z,67.50
2019-04-25T23:44:29.456Z,66.40
2019-04-25T23:46:58.331Z,67.70
2019-04-25T23:49:26.971Z,67.70
2019-04-25T23:51:55.934Z,69.00
2019-04-25T23:54:26.244Z,72.40
2019-04-25T23:56:55.243Z,70.80
2019-04-25T23:59:23.933Z,70.10
